Flight Track Log - Related Links

Times and Time Zones

All times are in EDT time to prevent confusion due to time zone crossing. See the N27XP flight status page for this flight to view local times or setup timezone preferences in your user account.

Time Position Orientation Groundspeed Altitude Reporting Facility
EDT Latitude Longitude Course Direction KTS MPH feet Rate Location/Type
Wed 05:12:52 PM 39.3667 -84.5333 297° West 135 155 1,700  Level Cincinnati TRACON
Wed 05:14:16 PM 39.4000 -84.6167 297° West 194 223 4,600 2,348 Climbing Cincinnati TRACON
Wed 05:15:10 PM 39.3833 -84.6833 252° West 243 280 7,100 3,105 Climbing Cincinnati TRACON
Wed 05:16:10 PM 39.3167 -84.6833 180° South 272 313 10,500 2,571 Climbing Cincinnati TRACON
Wed 05:17:23 PM 39.2128 -84.6725 175° South 310 357 12,800 2,178 Climbing Indianapolis Center
Wed 05:18:25 PM 39.1136 -84.6558 173° South 350 403 15,400 2,468 Climbing Indianapolis Center
Wed 05:19:27 PM 39.0078 -84.6386 173° South 371 427 17,900 2,419 Climbing Indianapolis Center
Wed 05:20:29 PM 38.8975 -84.6106 169° South 396 456 20,400 2,371 Climbing Indianapolis Center
Wed 05:21:31 PM 38.7842 -84.4908 141° Southeast 443 510 22,800 1,935 Climbing Indianapolis Center
Wed 05:22:33 PM 38.7008 -84.3675 131° Southeast 457 526 24,400 1,452 Climbing Indianapolis Center
Wed 05:23:35 PM 38.6053 -84.2292 131° Southeast 477 549 25,800 1,355 Climbing Indianapolis Center
Wed 05:24:37 PM 38.5150 -84.0958 131° Southeast 493 567 27,200 1,344 Climbing Indianapolis Center
Wed 05:25:40 PM 38.4247 -83.9628 131° Southeast 494 568 28,600 1,306 Climbing Indianapolis Center
Wed 05:26:41 PM 38.3347 -83.8292 131° Southeast 496 571 29,900 1,122 Climbing Indianapolis Center
Wed 05:27:43 PM 38.2433 -83.6986 132° Southeast 494 568 30,900 532 Climbing Indianapolis Center
Wed 05:28:45 PM 38.1350 -83.5425 131° Southeast 502 578 31,000 48 Climbing Indianapolis Center
Wed 05:29:48 PM 38.0367 -83.4083 133° Southeast 514 592 31,000  Level Indianapolis Center
Wed 05:30:50 PM 37.9264 -83.2931 140° Southeast 514 592 31,000  Level Indianapolis Center
Wed 05:31:52 PM 37.8064 -83.1997 148° Southeast 509 586 31,000  Level Indianapolis Center
Wed 05:32:54 PM 37.6892 -83.1000 146° Southeast 505 581 31,000  Level Indianapolis Center
Wed 05:33:56 PM 37.5697 -82.9653 138° Southeast 494 568 31,000  Level Indianapolis Center
Wed 05:34:58 PM 37.4814 -82.8300 129° Southeast 496 571 31,000  Level Indianapolis Center
Wed 05:36:00 PM 37.3947 -82.6997 130° Southeast 486 559 31,000  Level Indianapolis Center
Wed 05:37:02 PM 37.3086 -82.5719 130° Southeast 478 550 31,000  Level Indianapolis Center
Wed 05:38:04 PM 37.2214 -82.4428 130° Southeast 479 551 31,000  Level Indianapolis Center
Wed 05:39:06 PM 37.1319 -82.3097 130° Southeast 490 564 31,000  Level Indianapolis Center
Wed 05:40:08 PM 37.0394 -82.1744 131° Southeast 502 578 31,000  Level Indianapolis Center
Wed 05:41:10 PM 36.9319 -82.0161 130° Southeast 508 585 31,000  Level Indianapolis Center
Wed 05:42:12 PM 36.8392 -81.8808 131° Southeast 510 587 31,000  Level Indianapolis Center
Wed 05:42:45 PM 36.7886 -81.8069 130° Southeast 510 587 31,000 -65 Level Atlanta Center
Wed 05:43:45 PM 36.6967 -81.6725 130° Southeast 510 587 30,900 -500 Descending Atlanta Center
Wed 05:44:45 PM 36.6172 -81.5558 130° Southeast 505 581 30,000 -1,150 Descending Atlanta Center
Wed 05:45:45 PM 36.5183 -81.4142 131° Southeast 500 575 28,600 -1,600 Descending Atlanta Center
Wed 05:46:45 PM 36.4256 -81.2831 131° Southeast 500 575 26,800 -2,150 Descending Atlanta Center
Wed 05:47:45 PM 36.3372 -81.1547 130° Southeast 495 570 24,300 -2,500 Descending Atlanta Center
Wed 05:48:45 PM 36.2450 -81.0422 135° Southeast 485 558 21,800 -2,500 Descending Atlanta Center
Wed 05:49:45 PM 36.1383 -80.9561 147° Southeast 474 545 19,300 -1,400 Descending Atlanta Center
Wed 05:50:45 PM 36.0339 -80.8675 146° Southeast 457 526 19,000 -150 Descending Atlanta Center
Wed 05:51:45 PM 35.9456 -80.7556 134° Southeast 451 519 19,000  Level Atlanta Center
Wed 05:52:45 PM 35.8694 -80.6433 130° Southeast 463 533 19,000 -450 Level Atlanta Center
Wed 05:53:45 PM 35.7575 -80.5892 159° South 446 513 18,100 -1,700 Descending Atlanta Center
Wed 05:54:45 PM 35.6533 -80.5219 152° Southeast 423 487 15,600 -1,550 Descending Atlanta Center
Wed 05:55:45 PM 35.5928 -80.3842 118° Southeast 413 475 15,000 -300 Descending Atlanta Center
Wed 05:56:45 PM 35.5450 -80.2511 114° Southeast 418 481 15,000 -450 Level Atlanta Center
Wed 05:57:45 PM 35.4925 -80.1056 114° Southeast 418 481 14,100 -1,450 Descending Atlanta Center
Wed 05:58:45 PM 35.4425 -79.9806 116° Southeast 411 473 12,100 -1,700 Descending Atlanta Center
Wed 05:59:45 PM 35.3950 -79.8681 117° Southeast 411 473 10,700 450 Descending Atlanta Center
Wed 06:00:45 PM 35.3428 -79.7436 117° Southeast 411 473 13,000 1,150 Climbing Atlanta Center
Wed 06:01:45 PM 35.2922 -79.6189 116° Southeast 411 473 13,000  Level Atlanta Center
Wed 06:02:45 PM 35.2606 -79.5444 118° Southeast 411 473 13,000  Level Atlanta Center
Wed 06:03:45 PM 35.2606 -79.5444 219° Southwest 411 473 13,000  Level Atlanta Center
Wed 06:05:45 PM 35.2606 -79.5444 219° Southwest 411 473 13,000  Level Atlanta Center
Wed 06:08:00 PM 35.2338 -79.3843 121° Southeast  Level FlightAware Approximate
Wed 06:15:00 PM 35.2333 -79.3833 121° Southeast  Level FlightAware Approximate
Wed 06:16:00 PM 35.2380 -79.3883 121° Southeast  Level Estimated
Wed 06:17:00 PM 35.2333 -79.3833 121° Southeast  Level FlightAware Approximate
Wed 06:18:00 PM 35.2380 -79.3883 121° Southeast  Level Estimated
Wed 06:19:00 PM 35.2333 -79.3833 121° Southeast  Level FlightAware Approximate
Wed 06:20:00 PM 35.2380 -79.3883 121° Southeast  Level Estimated
Wed 06:21:00 PM 35.2333 -79.3833 121° Southeast  Level FlightAware Approximate

Login

Don't have an account? Register now (free) for customized features, flight alerts, and more!